createdAt,value
2022-08-07T00:02:37.371Z,13.84
2022-08-07T00:04:09.522Z,14.47
2022-08-07T00:06:45.591Z,14.04
2022-08-07T00:09:29.175Z,13.85
2022-08-07T00:12:03.350Z,13.79
2022-08-07T00:14:31.686Z,13.77
2022-08-07T00:17:02.536Z,13.74
2022-08-07T00:20:00.668Z,13.69
2022-08-07T00:22:24.470Z,13.65
2022-08-07T00:25:16.622Z,13.61
2022-08-07T00:27:52.502Z,13.69
2022-08-07T00:30:27.745Z,14.26
2022-08-07T00:33:02.852Z,13.65
2022-08-07T00:35:30.584Z,13.53
2022-08-07T00:37:59.718Z,13.46
2022-08-07T00:40:39.409Z,13.42
2022-08-07T00:44:01.534Z,13.35
2022-08-07T00:46:02.586Z,13.31
2022-08-07T00:48:32.090Z,13.27
2022-08-07T00:51:01.500Z,13.25
2022-08-07T00:53:39.084Z,13.80
2022-08-07T00:56:17.662Z,13.53
2022-08-07T00:58:47.493Z,13.28
2022-08-07T01:01:19.033Z,13.21
2022-08-07T01:03:56.585Z,13.17
2022-08-07T01:06:29.673Z,13.13
2022-08-07T01:09:01.344Z,13.10
2022-08-07T01:12:27.672Z,13.09
2022-08-07T01:14:28.543Z,13.07
2022-08-07T01:16:58.197Z,13.08
2022-08-07T01:19:32.197Z,13.25
2022-08-07T01:22:03.254Z,13.76
2022-08-07T01:24:39.577Z,13.19
2022-08-07T01:27:19.499Z,13.07
2022-08-07T01:29:48.701Z,13.05
2022-08-07T01:32:22.453Z,13.03
2022-08-07T01:34:52.811Z,13.03
2022-08-07T01:37:20.837Z,12.99
2022-08-07T01:39:52.344Z,12.98
2022-08-07T01:42:38.812Z,13.00
2022-08-07T01:45:22.710Z,12.98
2022-08-07T01:48:18.892Z,13.57
2022-08-07T01:50:47.093Z,13.27
2022-08-07T01:54:00.795Z,13.04
2022-08-07T01:56:36.969Z,12.99
2022-08-07T01:59:09.918Z,12.93
2022-08-07T02:02:02.360Z,12.92
2022-08-07T02:04:55.888Z,12.88
2022-08-07T02:07:44.997Z,12.89
2022-08-07T02:10:25.065Z,12.90
2022-08-07T02:12:56.021Z,13.64
2022-08-07T02:15:34.109Z,13.02
2022-08-07T02:18:03.522Z,12.87
2022-08-07T02:20:33.538Z,12.79
2022-08-07T02:23:05.507Z,12.75
2022-08-07T02:26:30.571Z,12.70
2022-08-07T02:28:29.046Z,12.66
2022-08-07T02:31:18.875Z,12.65
2022-08-07T02:34:01.936Z,12.62
2022-08-07T02:36:38.519Z,12.60
2022-08-07T02:39:17.249Z,13.03
2022-08-07T02:42:03.499Z,12.90
2022-08-07T02:44:47.789Z,12.66
2022-08-07T02:47:19.204Z,12.58
2022-08-07T02:49:57.692Z,12.55
2022-08-07T02:52:33.222Z,12.53
2022-08-07T02:55:15.265Z,12.49
2022-08-07T02:57:59.783Z,12.45
2022-08-07T03:00:30.608Z,12.42
2022-08-07T03:03:00.055Z,12.40
2022-08-07T03:05:38.115Z,12.41
2022-08-07T03:08:10.199Z,13.22
2022-08-07T03:10:46.495Z,12.61
2022-08-07T03:13:19.667Z,12.45
2022-08-07T03:15:58.407Z,12.38
2022-08-07T03:18:34.679Z,12.35
2022-08-07T03:21:08.774Z,12.35
2022-08-07T03:24:20.933Z,12.30
2022-08-07T03:26:34.302Z,12.27
2022-08-07T03:29:11.232Z,12.25
2022-08-07T03:31:46.407Z,12.26
2022-08-07T03:34:22.226Z,13.02
2022-08-07T03:36:57.363Z,12.39
2022-08-07T03:39:46.531Z,12.24
2022-08-07T03:42:19.948Z,12.17
2022-08-07T03:44:53.639Z,12.12
2022-08-07T03:47:28.023Z,12.08
2022-08-07T03:49:58.822Z,12.05
2022-08-07T03:52:33.833Z,12.02
2022-08-07T03:55:06.495Z,11.97
2022-08-07T03:58:33.726Z,11.96
2022-08-07T04:00:33.693Z,12.79
2022-08-07T04:03:04.772Z,12.14
2022-08-07T04:05:40.322Z,12.00
2022-08-07T04:08:16.173Z,11.93
2022-08-07T04:10:54.616Z,11.92
2022-08-07T04:14:10.806Z,11.89
2022-08-07T04:16:30.870Z,11.85
2022-08-07T04:19:04.326Z,11.85
2022-08-07T04:21:58.736Z,11.83
2022-08-07T04:24:34.284Z,11.80
2022-08-07T04:27:20.404Z,11.81
2022-08-07T04:30:01.701Z,11.81
2022-08-07T04:32:48.561Z,12.59
2022-08-07T04:35:27.029Z,12.07
2022-08-07T04:38:02.894Z,11.99
2022-08-07T04:40:33.615Z,11.98
2022-08-07T04:43:03.289Z,11.98
2022-08-07T04:46:06.642Z,12.02
2022-08-07T04:49:24.378Z,12.06
2022-08-07T04:52:10.921Z,12.10
2022-08-07T04:54:50.861Z,12.15
2022-08-07T04:58:15.845Z,12.45
2022-08-07T05:00:24.053Z,12.90
2022-08-07T05:03:17.072Z,12.48
2022-08-07T05:06:19.363Z,12.48
2022-08-07T05:09:46.332Z,12.51
2022-08-07T05:12:30.537Z,12.61
2022-08-07T05:15:23.337Z,12.62
2022-08-07T05:18:08.578Z,12.63
2022-08-07T05:20:46.567Z,12.71
2022-08-07T05:23:45.893Z,13.25
2022-08-07T05:26:24.469Z,13.48
2022-08-07T05:29:04.613Z,13.06
2022-08-07T05:31:38.850Z,13.05
2022-08-07T05:34:15.973Z,13.12
2022-08-07T05:36:53.024Z,13.18
2022-08-07T05:40:18.070Z,13.21
2022-08-07T05:42:33.667Z,13.29
2022-08-07T05:45:26.388Z,13.34
2022-08-07T05:48:01.091Z,14.10
2022-08-07T05:50:39.513Z,13.86
2022-08-07T05:54:09.384Z,13.78
2022-08-07T05:56:05.994Z,14.43
2022-08-07T05:58:41.660Z,14.76
2022-08-07T06:01:23.242Z,15.03
2022-08-07T06:03:58.959Z,15.10
2022-08-07T06:06:35.231Z,15.23
2022-08-07T06:09:06.739Z,15.44
2022-08-07T06:11:39.691Z,15.58
2022-08-07T06:14:11.568Z,15.60
2022-08-07T06:16:50.556Z,15.70
2022-08-07T06:19:48.014Z,15.81
2022-08-07T06:22:22.680Z,16.00
2022-08-07T06:25:01.449Z,16.01
2022-08-07T06:27:59.754Z,16.17
2022-08-07T06:30:31.945Z,16.20
2022-08-07T06:33:15.710Z,16.21
2022-08-07T06:36:06.098Z,16.43
2022-08-07T06:38:35.037Z,16.54
2022-08-07T06:41:12.935Z,16.72
2022-08-07T06:43:59.221Z,16.95
2022-08-07T06:46:35.439Z,17.02
2022-08-07T06:49:05.157Z,17.18
2022-08-07T06:51:49.348Z,17.22
2022-08-07T06:55:32.525Z,17.36
2022-08-07T06:57:12.199Z,17.53
2022-08-07T07:00:14.271Z,17.66
2022-08-07T07:02:54.591Z,17.94
2022-08-07T07:06:04.751Z,18.06
2022-08-07T07:08:18.806Z,18.10
2022-08-07T07:10:56.685Z,18.15
2022-08-07T07:13:58.292Z,18.32
2022-08-07T07:16:38.970Z,18.37
2022-08-07T07:19:56.049Z,18.42
2022-08-07T07:22:32.317Z,18.57
2022-08-07T07:25:02.767Z,18.73
2022-08-07T07:27:55.845Z,19.53
2022-08-07T07:30:37.909Z,19.28
2022-08-07T07:33:11.536Z,19.26
2022-08-07T07:35:44.136Z,19.52
2022-08-07T07:38:32.799Z,19.96
2022-08-07T07:41:05.653Z,19.84
2022-08-07T07:44:14.867Z,19.98
2022-08-07T07:46:37.636Z,20.38
2022-08-07T07:50:35.830Z,20.39
2022-08-07T07:52:13.221Z,19.72
2022-08-07T07:54:51.154Z,19.41
2022-08-07T07:57:43.748Z,19.39
2022-08-07T08:00:11.782Z,19.32
2022-08-07T08:03:05.898Z,19.28
2022-08-07T08:05:42.820Z,19.32
2022-08-07T08:08:34.581Z,19.44
2022-08-07T08:11:09.247Z,19.38
2022-08-07T08:13:54.852Z,19.48
2022-08-07T08:16:50.734Z,19.61
2022-08-07T08:20:17.082Z,19.70
2022-08-07T08:22:33.172Z,19.67
2022-08-07T08:25:41.972Z,19.74
2022-08-07T08:28:16.882Z,19.77
2022-08-07T08:30:57.468Z,20.08
2022-08-07T08:33:35.661Z,20.18
2022-08-07T08:36:09.181Z,20.09
2022-08-07T08:38:42.400Z,20.18
2022-08-07T08:41:23.540Z,20.24
2022-08-07T08:44:16.599Z,20.30
2022-08-07T08:47:05.457Z,20.27
2022-08-07T08:50:05.395Z,20.44
2022-08-07T08:52:53.597Z,20.55
2022-08-07T08:55:55.537Z,20.76
2022-08-07T08:58:44.662Z,20.80
2022-08-07T09:01:20.971Z,21.08
2022-08-07T09:03:58.122Z,21.17
2022-08-07T09:06:59.662Z,21.29
2022-08-07T09:09:43.028Z,21.68
2022-08-07T09:12:55.658Z,21.69
2022-08-07T09:16:22.613Z,21.85
2022-08-07T09:18:52.889Z,21.87
2022-08-07T09:22:10.044Z,22.22
2022-08-07T09:24:55.456Z,22.13
2022-08-07T09:27:59.884Z,22.23
2022-08-07T09:30:42.178Z,22.40
2022-08-07T09:33:40.750Z,22.68
2022-08-07T09:36:19.362Z,23.00
2022-08-07T09:38:57.842Z,23.06
2022-08-07T09:41:36.201Z,23.31
2022-08-07T09:47:24.789Z,23.08
2022-08-07T09:48:15.111Z,23.06
2022-08-07T09:51:26.026Z,23.49
2022-08-07T09:54:02.589Z,23.59
2022-08-07T09:56:41.817Z,23.63
2022-08-07T09:59:21.917Z,23.89
2022-08-07T10:02:10.909Z,23.99
2022-08-07T10:05:18.171Z,24.14
2022-08-07T10:08:33.708Z,23.83
2022-08-07T10:11:58.905Z,23.89
2022-08-07T10:14:03.639Z,24.22
2022-08-07T10:16:51.125Z,24.40
2022-08-07T10:19:55.984Z,24.36
2022-08-07T10:22:57.839Z,24.13
2022-08-07T10:25:42.860Z,23.95
2022-08-07T10:28:27.042Z,24.00
2022-08-07T10:31:31.514Z,23.97
2022-08-07T10:34:47.707Z,23.80
2022-08-07T10:38:00.248Z,23.71
2022-08-07T10:40:43.320Z,23.72
2022-08-07T10:43:29.737Z,23.90
2022-08-07T10:46:13.244Z,24.32
2022-08-07T10:48:57.555Z,24.47
2022-08-07T10:52:02.393Z,24.62
2022-08-07T10:54:53.101Z,24.98
2022-08-07T10:57:41.525Z,24.79
2022-08-07T11:00:39.593Z,24.75
2022-08-07T11:03:16.348Z,24.69
2022-08-07T11:05:59.360Z,24.82
2022-08-07T11:08:49.576Z,24.82
2022-08-07T11:11:35.851Z,24.72
2022-08-07T11:14:46.137Z,24.60
2022-08-07T11:17:07.301Z,24.67
2022-08-07T11:19:46.360Z,25.27
2022-08-07T11:22:38.230Z,24.92
2022-08-07T11:25:47.871Z,24.64
2022-08-07T11:28:29.596Z,24.61
2022-08-07T11:31:02.685Z,24.74
2022-08-07T11:34:00.368Z,24.61
2022-08-07T11:37:03.789Z,24.52
2022-08-07T11:40:21.827Z,24.89
2022-08-07T11:43:15.590Z,24.37
2022-08-07T11:46:05.429Z,24.52
2022-08-07T11:49:51.130Z,24.63
2022-08-07T11:52:29.159Z,24.70
2022-08-07T11:56:25.461Z,24.74
2022-08-07T11:58:39.719Z,24.76
2022-08-07T12:01:26.412Z,24.82
2022-08-07T12:04:49.029Z,25.58
2022-08-07T12:07:27.551Z,25.20
2022-08-07T12:11:08.033Z,24.83
2022-08-07T12:13:57.376Z,24.83
2022-08-07T12:16:30.853Z,24.85
2022-08-07T12:19:14.720Z,24.75
2022-08-07T12:22:39.149Z,24.62
2022-08-07T12:26:06.042Z,24.66
2022-08-07T12:28:37.214Z,24.95
2022-08-07T12:31:23.672Z,25.51
2022-08-07T12:33:55.951Z,25.17
2022-08-07T12:36:33.386Z,25.07
2022-08-07T12:39:41.999Z,25.12
2022-08-07T12:41:54.996Z,25.21
2022-08-07T12:44:26.340Z,25.04
2022-08-07T12:47:03.346Z,24.88
2022-08-07T12:49:54.355Z,24.85
2022-08-07T12:53:01.472Z,25.80
2022-08-07T12:56:04.056Z,24.94
2022-08-07T12:58:42.914Z,25.10
2022-08-07T13:01:14.514Z,25.01
2022-08-07T13:04:04.766Z,24.86
2022-08-07T13:06:54.392Z,24.77
2022-08-07T13:10:28.743Z,25.04
2022-08-07T13:13:48.182Z,25.40
2022-08-07T13:16:36.723Z,25.32
2022-08-07T13:19:34.882Z,25.40
2022-08-07T13:22:31.841Z,24.93
2022-08-07T13:25:04.425Z,24.85
2022-08-07T13:28:14.551Z,24.84
2022-08-07T13:30:41.472Z,25.10
2022-08-07T13:34:30.945Z,25.10
2022-08-07T13:37:04.294Z,26.01
2022-08-07T13:40:33.181Z,26.77
2022-08-07T13:42:39.717Z,26.57
2022-08-07T13:46:07.005Z,25.67
2022-08-07T13:48:07.714Z,25.36
2022-08-07T13:50:44.991Z,25.31
2022-08-07T13:53:35.910Z,25.23
2022-08-07T13:56:36.171Z,25.08
2022-08-07T13:59:21.800Z,25.64
2022-08-07T14:02:15.376Z,25.33
2022-08-07T14:04:47.506Z,25.25
2022-08-07T14:07:23.623Z,25.21
2022-08-07T14:10:16.573Z,25.31
2022-08-07T14:12:55.797Z,26.19
2022-08-07T14:15:35.087Z,25.48
2022-08-07T14:18:27.964Z,25.27
2022-08-07T14:21:11.782Z,25.21
2022-08-07T14:24:03.582Z,25.40
2022-08-07T14:27:16.111Z,26.14
2022-08-07T14:30:07.510Z,25.68
2022-08-07T14:32:46.212Z,25.40
2022-08-07T14:35:43.168Z,25.51
2022-08-07T14:38:26.467Z,26.24
2022-08-07T14:41:05.531Z,25.45
2022-08-07T14:43:57.075Z,25.20
2022-08-07T14:46:31.957Z,25.12
2022-08-07T14:49:17.536Z,25.07
2022-08-07T14:52:02.986Z,26.21
2022-08-07T14:54:35.935Z,25.95
2022-08-07T15:05:55.242Z,25.71
2022-08-07T15:08:47.524Z,25.38
2022-08-07T15:11:54.304Z,25.30
2022-08-07T15:14:22.617Z,25.25
2022-08-07T15:17:11.614Z,25.13
2022-08-07T15:20:32.778Z,25.05
2022-08-07T15:22:51.645Z,25.81
2022-08-07T15:25:36.982Z,25.73
2022-08-07T15:28:34.174Z,25.31
2022-08-07T15:31:05.645Z,25.34
2022-08-07T15:33:36.490Z,25.63
2022-08-07T15:36:08.290Z,25.79
2022-08-07T15:38:58.877Z,26.05
2022-08-07T15:42:45.732Z,25.87
2022-08-07T15:44:23.796Z,26.00
2022-08-07T15:47:08.599Z,25.40
2022-08-07T15:52:31.443Z,25.81
2022-08-07T15:55:08.557Z,25.83
2022-08-07T15:57:40.251Z,25.81
2022-08-07T16:00:31.454Z,25.29
2022-08-07T16:03:47.052Z,25.07
2022-08-07T16:06:16.530Z,25.31
2022-08-07T16:08:47.184Z,25.97
2022-08-07T16:11:52.668Z,25.71
2022-08-07T16:14:48.666Z,25.93
2022-08-07T16:18:02.283Z,25.05
2022-08-07T16:21:43.951Z,25.52
2022-08-07T16:24:00.921Z,25.62
2022-08-07T16:27:00.009Z,25.16
2022-08-07T16:30:11.593Z,24.80
2022-08-07T16:32:38.761Z,24.83
2022-08-07T16:35:51.554Z,25.14
2022-08-07T16:39:01.458Z,25.01
2022-08-07T16:41:57.006Z,25.38
2022-08-07T16:45:14.143Z,25.43
2022-08-07T16:48:29.981Z,25.14
2022-08-07T16:51:54.249Z,24.87
2022-08-07T16:54:22.819Z,24.67
2022-08-07T16:57:03.857Z,24.55
2022-08-07T16:59:46.731Z,24.48
2022-08-07T17:02:51.414Z,24.32
2022-08-07T17:06:19.541Z,24.67
2022-08-07T17:08:19.992Z,24.63
2022-08-07T17:10:56.950Z,24.22
2022-08-07T17:13:40.376Z,24.15
2022-08-07T17:16:26.600Z,24.02
2022-08-07T17:20:00.922Z,23.89
2022-08-07T17:22:37.558Z,24.40
2022-08-07T17:25:47.220Z,23.97
2022-08-07T17:28:31.598Z,23.67
2022-08-07T17:31:16.940Z,23.67
2022-08-07T17:34:15.635Z,23.61
2022-08-07T17:36:57.552Z,23.44
2022-08-07T17:39:58.471Z,23.57
2022-08-07T17:42:59.662Z,24.14
2022-08-07T17:45:31.187Z,23.53
2022-08-07T17:48:11.071Z,23.28
2022-08-07T17:51:04.678Z,23.19
2022-08-07T17:54:00.772Z,23.12
2022-08-07T17:56:37.715Z,23.04
2022-08-07T17:59:41.674Z,23.06
2022-08-07T18:02:17.629Z,23.81
2022-08-07T18:05:23.836Z,23.50
2022-08-07T18:08:24.285Z,23.07
2022-08-07T18:12:06.914Z,22.95
2022-08-07T18:14:31.761Z,22.83
2022-08-07T18:18:36.528Z,22.68
2022-08-07T18:21:09.770Z,23.64
2022-08-07T18:23:43.461Z,22.86
2022-08-07T18:26:24.187Z,22.54
2022-08-07T18:30:04.249Z,22.33
2022-08-07T18:32:17.302Z,22.19
2022-08-07T18:35:01.499Z,22.05
2022-08-07T18:38:57.525Z,21.94
2022-08-07T18:41:08.041Z,21.79
2022-08-07T18:43:49.898Z,22.44
2022-08-07T18:46:35.292Z,21.98
2022-08-07T18:50:31.211Z,21.60
2022-08-07T18:52:54.460Z,21.40
2022-08-07T18:56:02.749Z,21.26
2022-08-07T18:59:47.208Z,21.05
2022-08-07T19:02:19.070Z,20.93
2022-08-07T19:05:21.948Z,20.79
2022-08-07T19:08:05.601Z,20.73
2022-08-07T19:10:51.572Z,21.29
2022-08-07T19:13:50.279Z,20.66
2022-08-07T19:16:43.679Z,20.43
2022-08-07T19:19:53.829Z,20.26
2022-08-07T19:22:44.810Z,20.11
2022-08-07T19:26:23.560Z,19.98
2022-08-07T19:28:57.515Z,19.86
2022-08-07T19:31:41.481Z,19.75
2022-08-07T19:34:08.116Z,19.65
2022-08-07T19:36:40.912Z,19.56
2022-08-07T19:39:10.820Z,19.96
2022-08-07T19:42:05.755Z,19.68
2022-08-07T19:44:41.121Z,19.45
2022-08-07T19:47:14.813Z,19.34
2022-08-07T19:50:02.777Z,19.27
2022-08-07T19:52:34.528Z,19.19
2022-08-07T19:55:03.366Z,19.15
2022-08-07T19:58:00.369Z,19.10
2022-08-07T20:00:29.957Z,19.04
2022-08-07T20:03:03.530Z,19.00
2022-08-07T20:05:59.944Z,18.97
2022-08-07T20:08:30.984Z,18.92
2022-08-07T20:11:09.678Z,19.46
2022-08-07T20:13:55.398Z,19.28
2022-08-07T20:16:35.868Z,18.96
2022-08-07T20:19:10.258Z,18.89
2022-08-07T20:21:47.591Z,18.83
2022-08-07T20:24:30.119Z,18.78
2022-08-07T20:27:02.740Z,18.76
2022-08-07T20:29:48.907Z,18.72
2022-08-07T20:32:40.330Z,18.67
2022-08-07T20:35:16.054Z,18.65
2022-08-07T20:37:58.569Z,18.58
2022-08-07T20:40:32.384Z,19.15
2022-08-07T20:43:09.285Z,18.88
2022-08-07T20:46:27.239Z,18.64
2022-08-07T20:48:34.546Z,18.53
2022-08-07T20:51:04.499Z,18.48
2022-08-07T20:54:03.166Z,18.43
2022-08-07T20:56:37.970Z,18.37
2022-08-07T21:00:05.048Z,18.33
2022-08-07T21:02:00.283Z,18.28
2022-08-07T21:04:30.488Z,18.93
2022-08-07T21:07:03.959Z,18.57
2022-08-07T21:09:52.662Z,18.32
2022-08-07T21:12:31.290Z,18.24
2022-08-07T21:15:03.509Z,18.19
2022-08-07T21:18:03.270Z,18.13
2022-08-07T21:20:26.558Z,18.10
2022-08-07T21:23:08.138Z,18.06
2022-08-07T21:26:03.068Z,18.73
2022-08-07T21:28:50.113Z,19.00
2022-08-07T21:31:49.310Z,18.44
2022-08-07T21:34:31.726Z,18.18
2022-08-07T21:37:21.663Z,18.10
2022-08-07T21:40:03.194Z,18.07
2022-08-07T21:42:53.042Z,18.04
2022-08-07T21:46:07.847Z,18.02
2022-08-07T21:48:41.247Z,17.96
2022-08-07T21:51:33.198Z,17.91
2022-08-07T21:54:34.130Z,17.83
2022-08-07T21:57:45.018Z,17.75
2022-08-07T22:00:25.786Z,17.66
2022-08-07T22:02:53.263Z,18.12
2022-08-07T22:05:45.190Z,17.87
2022-08-07T22:08:18.944Z,17.62
2022-08-07T22:10:51.854Z,17.52
2022-08-07T22:13:24.538Z,17.44
2022-08-07T22:16:43.041Z,17.33
2022-08-07T22:19:23.524Z,17.26
2022-08-07T22:22:21.431Z,17.22
2022-08-07T22:25:13.053Z,17.18
2022-08-07T22:28:29.896Z,17.41
2022-08-07T22:31:05.452Z,17.66
2022-08-07T22:33:56.789Z,17.21
2022-08-07T22:36:32.859Z,17.11
2022-08-07T22:39:07.642Z,17.04
2022-08-07T22:42:03.302Z,17.02
2022-08-07T22:44:36.309Z,16.99
2022-08-07T22:47:52.239Z,16.94
2022-08-07T22:50:46.406Z,16.93
2022-08-07T22:54:07.385Z,17.03
2022-08-07T22:56:38.633Z,17.48
2022-08-07T22:59:20.186Z,17.02
2022-08-07T23:02:04.306Z,16.94
2022-08-07T23:04:57.892Z,16.88
2022-08-07T23:07:56.982Z,16.85
2022-08-07T23:10:52.845Z,16.81
2022-08-07T23:14:10.516Z,16.76
2022-08-07T23:16:55.905Z,16.73
2022-08-07T23:20:10.242Z,17.00
2022-08-07T23:22:52.362Z,17.20
2022-08-07T23:25:33.964Z,16.82
2022-08-07T23:28:22.558Z,16.70
2022-08-07T23:31:18.769Z,16.64
2022-08-07T23:34:37.895Z,16.57
2022-08-07T23:37:29.473Z,16.52
2022-08-07T23:40:02.910Z,16.46
2022-08-07T23:42:55.572Z,16.44
2022-08-07T23:46:23.862Z,16.63
2022-08-07T23:48:58.822Z,16.88
2022-08-07T23:53:06.749Z,16.52
2022-08-07T23:54:44.040Z,16.43
2022-08-07T23:57:24.602Z,16.37
